Boulevard West (444, 445, 6931) Station Data

Red Flag Warning: No
Fire Weather Zone: 258
SDGE Region: Mountain Empire
Lat/Lon: 32.662/-116.289

Observations

Time Wind Speed/Gust Temp(F) RH Fuel Moist Fuel Temp(F) Dewpt(F) Tmax(F) Tmin(F) Accum Precip 10-min Precip SL Press(mb)
4/26 2:30am 312 3 G 4 49° 68% - - 39° 51° 44.6° - - -
4/26 2:20am 309 4 G 5 47° 81% - - 42° 48.1° 44.6° - - -
4/26 2:10am 324 5 G 6 47° 83% - - 42° 48.1° 44.6° - - -
4/26 2:00am 318 6 G 8 48° 78% - - 41° 48.1° 44.6° - - -
4/26 1:50am 313 4 G 6 47° 86% - - 43° 47.7° 44.6° - - -
4/26 1:40am 310 6 G 7 46° 89% - - 43° 46.1° 44.6° - - -
4/26 1:30am 314 5 G 6 46° 89% - - 43° 46° 44.6° - - -
4/26 1:20am 313 4 G 5 46° 89% - - 43° 46° 44.6° - - -
4/26 1:10am 277 3 G 5 46° 90% - - 43° 45.9° 44.6° - - -
4/26 1:00am 287 2 G 3 45° 91% - - 42° 45.9° 44.6° - - -
4/26 12:50am 295 4 G 5 45° 91% - - 42° 45.9° 44.6° - - -
4/26 12:40am 319 4 G 4 45° 91% - - 42° 45.9° 44.6° - - -
4/26 12:30am 309 4 G 5 45° 91% - - 43° 45.9° 44.6° - - -
4/26 12:20am 285 3 G 5 45° 91% - - 43° 45.9° 44.8° - - -
4/26 12:10am 254 2 G 3 46° 91% - - 43° 45.9° 44.9° - - -
4/26 12:00am 269 1 G 3 45° 91% - - 43° 61.1° 45.1° - - -
4/25 11:50pm 229 3 G 6 46° 90% - - 43° 61.1° 45.1° - - -
4/25 11:40pm 199 2 G 5 46° 90% - - 43° 61.1° 45.2° - - -
4/25 11:30pm 93 2 G 4 46° 89% - - 43° 61.1° 45.2° - - -
4/25 11:20pm 284 2 G 3 46° 89% - - 43° 61.1° 45.2° - - -
4/25 11:10pm 252 2 G 5 46° 89% - - 43° 61.1° 45.2° - - -
4/25 11:00pm 238 4 G 7 46° 89% - - 43° 61.1° 45.2° - - -
4/25 10:50pm 134 2 G 4 47° 88% - - 43° 61.1° 45.2° - - -
4/25 10:40pm 246 4 G 9 47° 88% - - 44° 61.1° 45.2° - - -
4/25 10:30pm 255 8 G 11 47° 88% - - 44° 61.1° 45.2° - - -
4/25 10:20pm 239 8 G 11 47° 89% - - 44° 61.1° 45.2° - - -
4/25 10:10pm 236 8 G 13 47° 88% - - 44° 61.1° 45.2° - - -
4/25 10:00pm 226 8 G 12 47° 87% - - 44° 61.1° 45.2° - - -
4/25 9:50pm 231 9 G 14 48° 86% - - 44° 61.1° 45.2° - - -
4/25 9:40pm 243 8 G 13 48° 86% - - 44° 61.1° 45.2° - - -
4/25 9:30pm 243 9 G 15 48° 87% - - 45° 61.1° 45.2° - - -
4/25 9:20pm 246 10 G 17 48° 87% - - 45° 61.1° 45.2° - - -
4/25 9:10pm 253 10 G 16 48° 87% - - 45° 61.1° 45.2° - - -
4/25 9:00pm 246 8 G 13 49° 87% - - 45° 61.1° 45.2° - - -
4/25 8:50pm 263 11 G 21 49° 87% - - 45° 61.1° 45.2° - - -
4/25 8:40pm 258 11 G 17 49° 87% - - 45° 61.1° 45.2° - - -
4/25 8:30pm 255 13 G 20 49° 88% - - 46° 61.1° 45.2° - - -
4/25 8:20pm 256 11 G 18 49° 88% - - 46° 61.1° 45.2° - - -
4/25 8:10pm 253 13 G 19 50° 87% - - 46° 61.1° 45.2° - - -
4/25 8:00pm 255 13 G 19 50° 87% - - 46° 61.1° 45.2° - - -
4/25 7:50pm 256 15 G 21 50° 86% - - 46° 61.1° 45.2° - - -
4/25 7:40pm 258 15 G 23 51° 85% - - 46° 61.1° 45.2° - - -
4/25 7:30pm 256 14 G 22 51° 83% - - 46° 61.1° 45.2° - - -
4/25 7:20pm 255 13 G 20 51° 82% - - 46° 61.1° 45.2° - - -
4/25 7:10pm 259 15 G 23 52° 80% - - 46° 61.1° 45.2° - - -
4/25 7:00pm 260 17 G 25 52° 79% - - 46° 61.1° 45.2° - - -
4/25 6:50pm 262 18 G 26 52° 77% - - 45° 61.1° 45.2° - - -
4/25 6:40pm 267 18 G 27 53° 77% - - 46° 61.1° 45.2° - - -
4/25 6:30pm 264 19 G 27 53° 76% - - 46° 61.1° 45.2° - - -
4/25 6:20pm 264 18 G 27 53° 75% - - 46° 61.1° 45.2° - - -
4/25 6:10pm 261 18 G 25 54° 73% - - 46° 61.1° 45.2° - - -
4/25 6:00pm 263 18 G 25 55° 72% - - 46° 61.1° 45.2° - - -
4/25 5:50pm 264 18 G 24 55° 71% - - 46° 61.1° 45.2° - - -
4/25 5:40pm 262 20 G 27 56° 68% - - 45° 61.1° 45.2° - - -
4/25 5:30pm 259 19 G 26 56° 67% - - 45° 61.1° 45.2° - - -
4/25 5:20pm 263 19 G 27 56° 67% - - 45° 61.1° 45.2° - - -
4/25 5:10pm 264 18 G 25 57° 65% - - 45° 61.1° 45.2° - - -
4/25 5:00pm 270 19 G 29 57° 63% - - 45° 61.1° 45.2° - - -
4/25 4:50pm 267 20 G 31 57° 62% - - 45° 61.1° 45.2° - - -
4/25 4:40pm 273 21 G 32 58° 59% - - 44° 61.1° 45.2° - - -
4/25 4:30pm 269 20 G 28 58° 58% - - 44° 61.1° 45.2° - - -
4/25 4:20pm 265 21 G 29 58° 59% - - 44° 61.1° 45.2° - - -
4/25 4:10pm 271 20 G 30 58° 59% - - 44° 61.1° 45.2° - - -
4/25 4:00pm 271 17 G 27 58° 59% - - 44° 61.1° 45.2° - - -
4/25 3:50pm 269 16 G 24 58° 57% - - 43° 61.1° 45.2° - - -
4/25 3:40pm 268 15 G 26 58° 56% - - 43° 61.1° 45.2° - - -
4/25 3:30pm 255 20 G 30 58° 57% - - 43° 61.1° 45.2° - - -
4/25 3:20pm 259 21 G 32 58° 55% - - 43° 61.1° 45.2° - - -
4/25 3:10pm 256 20 G 27 59° 53% - - 42° 61.1° 45.2° - - -
4/25 3:00pm 273 20 G 30 60° 52% - - 42° 61.1° 45.2° - - -
4/25 2:50pm 271 20 G 31 60° 52% - - 42° 61.1° 45.2° - - -
4/25 2:40pm 277 22 G 30 60° 52% - - 42° 61.1° 45.2° - - -
4/25 2:30pm 270 21 G 32 59° 52% - - 42° 61.1° 45.2° - - -
4/25 2:20pm 271 20 G 29 60° 51% - - 42° 61.1° 45.2° - - -
4/25 2:10pm 272 22 G 32 60° 51% - - 41° 61.1° 45.2° - - -
4/25 2:00pm 267 18 G 28 60° 50% - - 42° 61.1° 45.2° - - -
4/25 1:50pm 265 18 G 28 60° 49% - - 41° 61.1° 45.2° - - -
4/25 1:40pm 259 22 G 30 60° 50% - - 41° 60.6° 45.2° - - -
4/25 1:30pm 267 22 G 31 59° 51% - - 41° 60° 45.2° - - -
4/25 1:20pm 269 20 G 29 59° 50% - - 41° 60° 45.2° - - -
4/25 1:10pm 268 17 G 26 59° 50% - - 41° 60° 45.2° - - -
4/25 1:00pm 269 20 G 29 59° 51% - - 41° 59.1° 45.2° - - -
4/25 12:50pm 269 20 G 28 58° 52% - - 41° 58.8° 45.2° - - -
4/25 12:40pm 260 16 G 26 58° 53% - - 41° 58.8° 45.2° - - -
4/25 12:30pm 262 13 G 22 58° 53% - - 41° 58.4° 45.2° - - -
4/25 12:20pm 271 12 G 24 57° 54% - - 41° 58.2° 45.2° - - -
4/25 12:10pm 265 18 G 29 57° 54% - - 41° 58.2° 45.2° - - -
4/25 12:00pm 270 17 G 26 58° 53% - - 40° 58.2° 45.2° - - -
4/25 11:50am 269 19 G 27 57° 54% - - 40° 57.8° 45.2° - - -
4/25 11:40am 268 16 G 26 57° 55% - - 41° 57.7° 45.2° - - -
4/25 11:30am 260 17 G 28 57° 57% - - 42° 57.1° 45.2° - - -
4/25 11:20am 265 15 G 26 56° 57% - - 41° 57° 45.2° - - -
4/25 11:10am 256 15 G 25 56° 57% - - 41° 56.5° 45.2° - - -
4/25 11:00am 264 10 G 20 56° 60% - - 42° 56.5° 45.2° - - -
4/25 10:50am 263 16 G 28 55° 62% - - 42° 55.9° 45.2° - - -
4/25 10:40am 263 17 G 29 55° 64% - - 43° 55.8° 45.2° - - -
4/25 10:30am 263 23 G 36 54° 66% - - 43° 55° 45.2° - - -
4/25 10:20am 261 28 G 39 53° 69% - - 43° 53.6° 45.2° - - -
4/25 10:10am 259 28 G 37 53° 70% - - 43° 53.3° 45.2° - - -
4/25 10:00am 261 28 G 38 52° 72% - - 43° 52.3° 45.2° - - -
4/25 9:50am 260 30 G 43 51° 74% - - 43° 51.7° 45.2° - - -
4/25 9:40am 258 29 G 39 51° 76% - - 44° 51.5° 45.2° - - -
4/25 9:30am 260 30 G 39 50° 77% - - 43° 50.9° 45.2° - - -
4/25 9:20am 257 30 G 41 50° 77% - - 44° 50.8° 45.2° - - -
4/25 9:10am 263 28 G 38 50° 78% - - 43° 50.4° 45.2° - - -
4/25 9:00am 263 29 G 40 50° 79% - - 43° 50.3° 45.2° - - -
4/25 8:50am 262 26 G 35 49° 81% - - 44° 49.6° 45.2° - - -
4/25 8:40am 262 20 G 28 49° 81% - - 44° 49.5° 45.2° - - -
4/25 8:30am 256 18 G 27 48° 84% - - 44° 48.5° 45.2° - - -
4/25 8:20am 247 14 G 25 48° 86% - - 44° 48° 45.2° - - -
4/25 8:10am 251 14 G 20 47° 87% - - 44° 47.8° 45.2° - - -
4/25 8:00am 257 14 G 22 47° 87% - - 44° 47.5° 45.2° - - -
4/25 7:50am 266 13 G 19 47° 89% - - 44° 47.2° 45.2° - - -
4/25 7:40am 262 16 G 23 46° 91% - - 44° 47° 45.2° - - -
4/25 7:30am 262 12 G 22 46° 92% - - 44° 46.6° 45.2° - - -
4/25 7:20am 260 10 G 19 46° 92% - - 44° 46.6° 45.2° - - -
4/25 7:10am 251 12 G 20 46° 92% - - 44° 46.6° 45.2° - - -
4/25 7:00am 249 11 G 17 46° 93% - - 44° 46.6° 45.2° - - -
4/25 6:50am 252 12 G 20 46° 93% - - 44° 46.6° 45.2° - - -
4/25 6:40am 236 10 G 19 46° 93% - - 44° 46.6° 45.2° - - -
4/25 6:30am 241 12 G 22 46° 93% - - 44° 46.6° 45.2° - - -
4/25 6:20am 245 15 G 26 46° 92% - - 43° 46.6° 45.2° - - -
4/25 6:10am 251 18 G 26 46° 92% - - 43° 46.6° 45.2° - - -
4/25 6:00am 251 20 G 30 46° 92% - - 43° 46.6° 45.2° - - -
4/25 5:50am 251 22 G 31 46° 91% - - 44° 46.6° 45.2° - - -
4/25 5:40am 248 21 G 29 46° 91% - - 44° 46.6° 45.2° - - -
4/25 5:30am 248 19 G 26 46° 92% - - 44° 46.6° 45.2° - - -
4/25 5:20am 247 19 G 30 46° 92% - - 43° 46.6° 45.2° - - -
4/25 5:10am 248 19 G 27 46° 92% - - 44° 46.6° 45.2° - - -
4/25 5:00am 245 18 G 25 46° 92% - - 44° 46.6° 45.2° - - -
4/25 4:50am 249 19 G 31 46° 92% - - 44° 46.6° 45.2° - - -
4/25 4:40am 247 22 G 32 46° 93% - - 43° 46.6° 45.2° - - -
4/25 4:30am 250 24 G 33 46° 92% - - 44° 46.6° 45.2° - - -
4/25 4:20am 254 24 G 32 46° 92% - - 44° 46.6° 45.2° - - -
4/25 4:10am 252 26 G 38 46° 92% - - 44° 46.6° 45.2° - - -
4/25 4:00am 250 29 G 37 46° 93% - - 44° 46.6° 45.2° - - -
4/25 3:50am 249 29 G 40 46° 92% - - 44° 46.6° 45.2° - - -
4/25 3:40am 249 30 G 39 46° 92% - - 44° 46.6° 45.2° - - -
4/25 3:30am 249 31 G 39 46° 92% - - 44° 46.6° 45.2° - - -
4/25 3:20am 245 28 G 39 46° 92% - - 44° 46.6° 45.2° - - -
4/25 3:10am 249 29 G 39 46° 93% - - 44° 46.6° 45.2° - - -
4/25 3:00am 250 28 G 38 46° 93% - - 44° 46.6° 45.2° - - -
4/25 2:50am 252 22 G 31 46° 92% - - 44° 46.6° 45.2° - - -
4/25 2:40am 246 24 G 35 46° 93% - - 44° 46.6° 45.2° - - -
4/25 2:30am 245 27 G 37 45° 93% - - 44° 46.6° 45.2° - - -
4/25 2:20am 245 25 G 36 45° 93% - - 44° 46.6° 45.2° - - -
4/25 2:10am 247 24 G 33 45° 93% - - 43° 46.6° 45.2° - - -
4/25 2:00am 246 27 G 35 46° 92% - - 43° 46.6° 45.4° - - -
4/25 1:50am 250 26 G 39 46° 92% - - 43° 46.6° 45.4° - - -
4/25 1:40am 252 29 G 42 46° 92% - - 43° 46.6° 45.4° - - -
4/25 1:30am 252 29 G 40 46° 92% - - 43° 46.6° 45.4° - - -
4/25 1:20am 250 29 G 38 46° 92% - - 44° 46.6° 45.4° - - -
4/25 1:10am 247 28 G 38 46° 92% - - 43° 46.6° 45.4° - - -
4/25 1:00am 250 25 G 34 46° 92% - - 44° 46.6° 45.4° - - -
4/25 12:50am 247 24 G 33 46° 91% - - 44° 46.6° 45.8° - - -
4/25 12:40am 244 21 G 31 46° 91% - - 44° 46.6° 45.8° - - -
4/25 12:30am 241 21 G 30 46° 91% - - 44° 46.6° 45.8° - - -
4/25 12:20am 242 21 G 28 46° 91% - - 44° 46.6° 45.9° - - -
4/25 12:10am 245 19 G 26 46° 90% - - 44° 46.6° 46.1° - - -
4/25 12:00am 246 18 G 24 46° 89% - - 43° 64.7° 45.6° - - -
4/24 11:50pm 244 19 G 27 46° 90% - - 43° 64.7° 45.6° - - -
4/24 11:40pm 239 19 G 27 46° 91% - - 43° 64.7° 45.6° - - -
4/24 11:30pm 241 17 G 27 46° 92% - - 44° 64.7° 45.6° - - -
4/24 11:20pm 247 19 G 25 46° 92% - - 44° 64.7° 45.6° - - -
4/24 11:10pm 248 21 G 29 46° 92% - - 44° 64.7° 45.7° - - -
4/24 11:00pm 249 21 G 27 46° 91% - - 44° 64.7° 45.8° - - -
4/24 10:50pm 251 21 G 28 46° 91% - - 44° 64.7° 45.8° - - -
4/24 10:40pm 252 22 G 31 47° 90% - - 44° 64.7° 45.8° - - -
4/24 10:30pm 252 22 G 30 47° 90% - - 44° 64.7° 45.8° - - -
4/24 10:20pm 250 25 G 31 47° 90% - - 44° 64.7° 45.8° - - -
4/24 10:10pm 250 24 G 33 48° 90% - - 45° 64.7° 45.8° - - -
4/24 10:00pm 253 24 G 33 48° 89% - - 45° 64.7° 45.8° - - -
4/24 9:50pm 255 26 G 36 48° 88% - - 45° 64.7° 45.8° - - -
4/24 9:40pm 254 28 G 38 48° 88% - - 45° 64.7° 45.8° - - -
4/24 9:30pm 254 26 G 38 48° 89% - - 45° 64.7° 45.8° - - -
4/24 9:20pm 253 27 G 41 48° 87% - - 45° 64.7° 45.8° - - -
4/24 9:10pm 256 26 G 34 49° 85% - - 44° 64.7° 45.8° - - -
4/24 9:00pm 258 28 G 39 49° 85% - - 45° 64.7° 45.8° - - -
4/24 8:50pm 259 29 G 39 49° 86% - - 45° 64.7° 45.8° - - -
4/24 8:40pm 260 29 G 39 49° 85% - - 45° 64.7° 45.8° - - -
4/24 8:30pm 258 31 G 41 50° 86% - - 45° 64.7° 45.8° - - -
4/24 8:20pm 255 31 G 41 50° 86% - - 46° 64.7° 45.8° - - -
4/24 8:10pm 254 31 G 44 50° 86% - - 46° 64.7° 45.8° - - -
4/24 8:00pm 252 31 G 43 51° 82% - - 45° 64.7° 45.8° - - -
4/24 7:50pm 252 31 G 41 51° 81% - - 45° 64.7° 45.8° - - -
4/24 7:40pm 252 32 G 40 52° 80% - - 46° 64.7° 45.8° - - -
4/24 7:30pm 252 31 G 41 52° 78% - - 46° 64.7° 45.8° - - -
4/24 7:20pm 253 32 G 43 53° 77% - - 46° 64.7° 45.8° - - -
4/24 7:10pm 252 32 G 43 53° 74% - - 45° 64.7° 45.8° - - -
4/24 7:00pm 253 30 G 41 54° 70% - - 45° 64.7° 45.8° - - -
4/24 6:50pm 256 30 G 42 55° 60% - - 42° 64.7° 45.8° - - -
4/24 6:40pm 254 31 G 41 56° 57% - - 41° 64.7° 45.8° - - -
4/24 6:30pm 256 32 G 45 57° 54% - - 40° 64.7° 45.8° - - -
4/24 6:20pm 254 33 G 41 57° 51% - - 39° 64.7° 45.8° - - -
4/24 6:10pm 258 31 G 40 58° 49% - - 39° 64.7° 45.8° - - -
4/24 6:00pm 255 32 G 46 58° 48% - - 38° 64.7° 45.8° - - -